createdAt,value
2018-07-14T00:00:17.455Z,20.50
2018-07-14T00:02:46.773Z,20.46
2018-07-14T00:05:16.085Z,20.41
2018-07-14T00:07:45.370Z,20.38
2018-07-14T00:10:14.717Z,20.36
2018-07-14T00:12:43.994Z,20.30
2018-07-14T00:15:13.339Z,20.27
2018-07-14T00:17:42.594Z,20.29
2018-07-14T00:20:11.948Z,20.21
2018-07-14T00:22:42.656Z,20.17
2018-07-14T00:25:12.132Z,20.13
2018-07-14T00:27:41.413Z,20.12
2018-07-14T00:30:10.894Z,20.06
2018-07-14T00:32:40.245Z,20.03
2018-07-14T00:35:09.625Z,20.02
2018-07-14T00:37:39.059Z,20.00
2018-07-14T00:40:08.609Z,19.98
2018-07-14T00:42:38.015Z,19.94
2018-07-14T00:45:07.431Z,19.94
2018-07-14T00:47:36.852Z,19.88
2018-07-14T00:50:06.286Z,19.81
2018-07-14T00:52:35.432Z,19.75
2018-07-14T00:55:04.867Z,19.79
2018-07-14T00:57:34.104Z,19.78
2018-07-14T01:00:03.442Z,19.78
2018-07-14T01:02:32.772Z,19.75
2018-07-14T01:05:01.854Z,19.66
2018-07-14T01:07:31.405Z,19.59
2018-07-14T01:10:00.680Z,19.56
2018-07-14T01:12:30.007Z,19.52
2018-07-14T01:14:59.325Z,19.45
2018-07-14T01:17:28.642Z,19.42
2018-07-14T01:19:58.264Z,19.45
2018-07-14T01:22:27.642Z,19.41
2018-07-14T01:24:56.981Z,19.38
2018-07-14T01:27:26.342Z,19.31
2018-07-14T01:29:55.632Z,19.27
2018-07-14T01:32:24.900Z,19.22
2018-07-14T01:34:54.157Z,19.19
2018-07-14T01:37:23.471Z,19.12
2018-07-14T01:39:52.606Z,19.10
2018-07-14T01:42:21.915Z,19.04
2018-07-14T01:44:51.321Z,19.05
2018-07-14T01:47:20.649Z,19.11
2018-07-14T01:49:49.948Z,19.04
2018-07-14T01:52:19.274Z,19.02
2018-07-14T01:54:48.537Z,18.96
2018-07-14T01:57:17.870Z,18.91
2018-07-14T01:59:47.318Z,18.91
2018-07-14T02:02:16.636Z,18.86
2018-07-14T02:04:45.747Z,18.90
2018-07-14T02:07:15.021Z,18.92
2018-07-14T02:09:44.363Z,18.91
2018-07-14T02:12:13.635Z,18.87
2018-07-14T02:14:42.993Z,18.82
2018-07-14T02:17:12.318Z,18.78
2018-07-14T02:19:41.713Z,18.74
2018-07-14T02:22:10.777Z,18.73
2018-07-14T02:24:40.239Z,18.69
2018-07-14T02:27:09.678Z,18.67
2018-07-14T02:29:38.999Z,18.63
2018-07-14T02:32:08.427Z,18.62
2018-07-14T02:34:37.660Z,18.64
2018-07-14T02:37:07.051Z,18.58
2018-07-14T02:39:36.563Z,18.56
2018-07-14T02:42:05.892Z,18.52
2018-07-14T02:44:35.191Z,18.46
2018-07-14T02:47:04.561Z,18.42
2018-07-14T02:49:33.812Z,18.39
2018-07-14T02:52:03.107Z,18.37
2018-07-14T02:54:32.417Z,18.34
2018-07-14T02:57:01.717Z,18.25
2018-07-14T02:59:31.086Z,18.21
2018-07-14T03:02:00.781Z,18.19
2018-07-14T03:04:30.120Z,18.11
2018-07-14T03:06:59.631Z,18.07
2018-07-14T03:09:29.818Z,18.01
2018-07-14T03:11:59.118Z,18.02
2018-07-14T03:14:28.415Z,17.99
2018-07-14T03:16:57.727Z,17.93
2018-07-14T03:19:27.207Z,17.91
2018-07-14T03:21:56.453Z,17.87
2018-07-14T03:24:25.881Z,17.84
2018-07-14T03:26:55.270Z,17.84
2018-07-14T03:29:24.544Z,17.80
2018-07-14T03:31:53.819Z,17.75
2018-07-14T03:34:23.203Z,17.79
2018-07-14T03:36:52.452Z,17.71
2018-07-14T03:39:21.749Z,17.74
2018-07-14T03:41:51.152Z,17.66
2018-07-14T03:44:20.302Z,17.65
2018-07-14T03:46:49.273Z,17.69
2018-07-14T03:49:18.540Z,17.65
2018-07-14T03:51:47.899Z,17.68
2018-07-14T03:54:17.386Z,17.62
2018-07-14T03:56:46.759Z,17.60
2018-07-14T03:59:22.699Z,17.60
2018-07-14T04:01:52.011Z,17.67
2018-07-14T04:04:21.295Z,17.68
2018-07-14T04:06:50.570Z,17.69
2018-07-14T04:09:19.970Z,17.73
2018-07-14T04:11:49.279Z,17.77
2018-07-14T04:14:18.304Z,17.73
2018-07-14T04:16:47.629Z,17.71
2018-07-14T04:19:17.026Z,17.69
2018-07-14T04:21:46.333Z,17.73
2018-07-14T04:24:15.613Z,17.73
2018-07-14T04:26:45.291Z,17.76
2018-07-14T04:29:14.567Z,17.82
2018-07-14T04:31:43.841Z,17.87
2018-07-14T04:34:13.113Z,17.96
2018-07-14T04:36:42.465Z,18.04
2018-07-14T04:39:11.847Z,18.18
2018-07-14T04:41:41.187Z,18.35
2018-07-14T04:44:10.511Z,18.37
2018-07-14T04:46:40.012Z,18.39
2018-07-14T04:49:09.513Z,18.46
2018-07-14T04:51:38.874Z,18.55
2018-07-14T04:54:08.212Z,18.52
2018-07-14T04:56:37.511Z,18.53
2018-07-14T04:59:06.980Z,18.54
2018-07-14T05:01:36.510Z,18.50
2018-07-14T05:04:05.827Z,18.52
2018-07-14T05:06:35.170Z,18.52
2018-07-14T05:09:05.479Z,18.68
2018-07-14T05:11:34.735Z,18.90
2018-07-14T05:14:04.170Z,19.07
2018-07-14T05:16:33.482Z,19.26
2018-07-14T05:19:02.732Z,19.34
2018-07-14T05:21:32.131Z,19.44
2018-07-14T05:24:01.409Z,19.63
2018-07-14T05:26:30.867Z,19.79
2018-07-14T05:29:00.179Z,19.90
2018-07-14T05:31:29.509Z,20.16
2018-07-14T05:33:58.998Z,20.27
2018-07-14T05:36:28.124Z,20.44
2018-07-14T05:38:57.539Z,20.63
2018-07-14T05:41:26.967Z,20.78
2018-07-14T05:43:56.426Z,20.89
2018-07-14T05:46:25.735Z,21.24
2018-07-14T05:48:55.005Z,21.37
2018-07-14T05:51:24.309Z,21.64
2018-07-14T05:53:53.622Z,21.59
2018-07-14T05:56:23.051Z,21.85
2018-07-14T05:58:52.387Z,22.05
2018-07-14T06:01:21.770Z,22.31
2018-07-14T06:03:51.040Z,22.29
2018-07-14T06:06:20.354Z,22.65
2018-07-14T06:08:49.721Z,23.00
2018-07-14T06:11:19.044Z,23.09
2018-07-14T06:13:48.399Z,23.14
2018-07-14T06:16:17.715Z,23.10
2018-07-14T06:18:47.099Z,22.86
2018-07-14T06:21:16.383Z,23.36
2018-07-14T06:23:45.713Z,23.75
2018-07-14T06:26:15.106Z,24.04
2018-07-14T06:28:44.428Z,24.42
2018-07-14T06:31:13.530Z,24.96
2018-07-14T06:33:42.855Z,25.09
2018-07-14T06:36:12.296Z,24.81
2018-07-14T06:38:41.774Z,24.98
2018-07-14T06:41:11.058Z,24.72
2018-07-14T06:43:40.547Z,25.08
2018-07-14T06:46:09.665Z,24.63
2018-07-14T06:48:38.973Z,24.72
2018-07-14T06:51:09.106Z,25.46
2018-07-14T06:53:39.121Z,25.37
2018-07-14T06:56:08.554Z,25.78
2018-07-14T06:58:37.979Z,26.09
2018-07-14T07:01:07.276Z,26.04
2018-07-14T07:03:36.894Z,26.40
2018-07-14T07:06:06.330Z,26.42
2018-07-14T07:08:35.566Z,26.61
2018-07-14T07:11:04.824Z,26.93
2018-07-14T07:13:34.160Z,27.02
2018-07-14T07:16:03.374Z,27.18
2018-07-14T07:18:32.746Z,27.36
2018-07-14T07:21:02.092Z,27.47
2018-07-14T07:23:31.631Z,27.61
2018-07-14T07:26:00.939Z,27.96
2018-07-14T07:28:30.327Z,27.96
2018-07-14T07:30:59.681Z,27.93
2018-07-14T07:33:29.113Z,27.74
2018-07-14T07:35:58.405Z,27.99
2018-07-14T07:38:27.826Z,28.18
2018-07-14T07:40:57.240Z,28.40
2018-07-14T07:43:26.483Z,28.16
2018-07-14T07:45:55.763Z,28.07
2018-07-14T07:48:25.046Z,28.47
2018-07-14T07:50:54.383Z,28.84
2018-07-14T07:53:23.639Z,28.64
2018-07-14T07:55:52.929Z,28.46
2018-07-14T07:58:22.475Z,28.31
2018-07-14T08:00:51.933Z,28.68
2018-07-14T08:03:22.690Z,28.86
2018-07-14T08:05:52.043Z,29.21
2018-07-14T08:08:21.409Z,29.59
2018-07-14T08:10:51.033Z,29.75
2018-07-14T08:13:20.338Z,29.99
2018-07-14T08:15:49.796Z,29.87
2018-07-14T08:18:19.110Z,30.00
2018-07-14T08:20:48.243Z,29.97
2018-07-14T08:23:17.491Z,30.02
2018-07-14T08:25:46.855Z,29.95
2018-07-14T08:28:16.197Z,30.11
2018-07-14T08:30:45.514Z,30.16
2018-07-14T08:33:14.896Z,30.30
2018-07-14T08:35:44.213Z,30.40
2018-07-14T08:38:13.568Z,30.61
2018-07-14T08:40:42.821Z,30.64
2018-07-14T08:43:12.106Z,30.90
2018-07-14T08:45:41.570Z,30.77
2018-07-14T08:48:10.992Z,31.02
2018-07-14T08:50:40.440Z,31.32
2018-07-14T08:53:09.759Z,31.22
2018-07-14T08:55:39.058Z,31.56
2018-07-14T08:58:08.515Z,31.44
2018-07-14T09:00:37.829Z,31.43
2018-07-14T09:03:07.596Z,31.51
2018-07-14T09:05:36.888Z,31.42
2018-07-14T09:08:06.223Z,31.53
2018-07-14T09:10:35.688Z,31.16
2018-07-14T09:13:04.899Z,31.26
2018-07-14T09:15:34.241Z,31.69
2018-07-14T09:18:03.513Z,31.21
2018-07-14T09:20:32.805Z,31.57
2018-07-14T09:23:02.108Z,31.60
2018-07-14T09:25:31.415Z,31.48
2018-07-14T09:28:00.672Z,31.77
2018-07-14T09:30:30.346Z,31.77
2018-07-14T09:32:59.674Z,31.94
2018-07-14T09:35:29.059Z,31.50
2018-07-14T09:37:58.427Z,31.85
2018-07-14T09:40:27.726Z,31.83
2018-07-14T09:42:57.006Z,32.11
2018-07-14T09:45:26.315Z,32.50
2018-07-14T09:47:55.755Z,32.20
2018-07-14T09:50:25.138Z,32.12
2018-07-14T09:52:54.485Z,32.06
2018-07-14T09:55:23.914Z,31.50
2018-07-14T09:57:53.315Z,31.72
2018-07-14T10:00:27.867Z,32.18
2018-07-14T10:02:57.244Z,32.38
2018-07-14T10:05:26.572Z,31.72
2018-07-14T10:07:55.967Z,32.60
2018-07-14T10:10:25.555Z,32.97
2018-07-14T10:12:55.156Z,32.90
2018-07-14T10:15:24.301Z,33.29
2018-07-14T10:17:53.790Z,33.01
2018-07-14T10:20:23.104Z,33.26
2018-07-14T10:22:52.495Z,33.00
2018-07-14T10:25:21.944Z,33.20
2018-07-14T10:27:51.123Z,33.43
2018-07-14T10:30:20.463Z,33.29
2018-07-14T10:32:49.733Z,33.08
2018-07-14T10:35:19.028Z,33.03
2018-07-14T10:37:48.412Z,32.70
2018-07-14T10:40:17.720Z,32.78
2018-07-14T10:42:47.042Z,33.12
2018-07-14T10:45:16.517Z,33.72
2018-07-14T10:47:45.796Z,33.54
2018-07-14T10:50:31.636Z,32.73
2018-07-14T10:53:00.975Z,32.58
2018-07-14T10:55:30.298Z,33.07
2018-07-14T10:57:59.355Z,33.15
2018-07-14T11:00:28.708Z,33.71
2018-07-14T11:02:57.995Z,33.87
2018-07-14T11:05:27.481Z,34.05
2018-07-14T11:07:56.844Z,33.83
2018-07-14T11:10:26.911Z,34.01
2018-07-14T11:12:56.982Z,34.16
2018-07-14T11:15:26.379Z,34.19
2018-07-14T11:17:55.781Z,33.88
2018-07-14T11:20:25.085Z,34.37
2018-07-14T11:22:54.380Z,34.47
2018-07-14T11:25:23.696Z,34.38
2018-07-14T11:27:53.234Z,34.25
2018-07-14T11:30:22.735Z,34.33
2018-07-14T11:32:52.068Z,34.09
2018-07-14T11:35:21.378Z,34.05
2018-07-14T11:37:50.764Z,33.84
2018-07-14T11:40:20.097Z,33.93
2018-07-14T11:42:49.432Z,34.34
2018-07-14T11:45:18.852Z,34.46
2018-07-14T11:47:48.171Z,34.32
2018-07-14T11:50:17.585Z,34.32
2018-07-14T11:52:46.891Z,33.90
2018-07-14T11:55:15.933Z,34.00
2018-07-14T11:57:45.222Z,34.46
2018-07-14T12:00:14.482Z,33.95
2018-07-14T12:02:43.851Z,34.46
2018-07-14T12:05:13.165Z,33.86
2018-07-14T12:07:42.589Z,33.75
2018-07-14T12:10:12.013Z,33.71
2018-07-14T12:12:41.426Z,33.56
2018-07-14T12:15:11.054Z,33.28
2018-07-14T12:17:40.556Z,32.83
2018-07-14T12:20:10.281Z,32.50
2018-07-14T12:22:39.713Z,33.16
2018-07-14T12:25:09.135Z,33.65
2018-07-14T12:27:38.574Z,33.83
2018-07-14T12:30:08.013Z,34.05
2018-07-14T12:32:37.321Z,34.58
2018-07-14T12:35:06.777Z,34.54
2018-07-14T12:37:36.178Z,34.30
2018-07-14T12:40:05.496Z,34.56
2018-07-14T12:42:34.818Z,34.54
2018-07-14T12:45:04.201Z,34.76
2018-07-14T12:47:33.485Z,34.66
2018-07-14T12:50:02.784Z,34.42
2018-07-14T12:52:32.081Z,34.67
2018-07-14T12:55:01.364Z,34.45
2018-07-14T12:57:30.736Z,34.46
2018-07-14T13:00:00.124Z,34.33
2018-07-14T13:02:29.341Z,33.99
2018-07-14T13:04:58.707Z,34.02
2018-07-14T13:07:28.145Z,34.56
2018-07-14T13:09:57.493Z,34.64
2018-07-14T13:12:26.826Z,34.59
2018-07-14T13:14:56.217Z,34.41
2018-07-14T13:17:25.498Z,34.41
2018-07-14T13:19:54.860Z,34.03
2018-07-14T13:22:24.147Z,33.87
2018-07-14T13:24:53.434Z,34.05
2018-07-14T13:27:22.893Z,34.06
2018-07-14T13:29:51.936Z,33.83
2018-07-14T13:32:21.216Z,33.87
2018-07-14T13:34:50.546Z,33.74
2018-07-14T13:37:19.802Z,33.79
2018-07-14T13:39:49.291Z,33.98
2018-07-14T13:42:18.700Z,33.93
2018-07-14T13:44:48.017Z,33.47
2018-07-14T13:47:17.415Z,33.40
2018-07-14T13:49:46.743Z,33.69
2018-07-14T13:52:16.107Z,34.03
2018-07-14T13:54:45.456Z,33.71
2018-07-14T13:57:14.772Z,33.63
2018-07-14T13:59:44.089Z,33.84
2018-07-14T14:02:13.343Z,33.75
2018-07-14T14:04:42.825Z,33.77
2018-07-14T14:07:12.119Z,33.46
2018-07-14T14:09:41.452Z,33.19
2018-07-14T14:12:10.739Z,33.09
2018-07-14T14:14:40.052Z,33.24
2018-07-14T14:17:09.491Z,33.12
2018-07-14T14:19:38.806Z,32.97
2018-07-14T14:22:08.016Z,32.67
2018-07-14T14:24:37.288Z,32.78
2018-07-14T14:27:06.808Z,32.56
2018-07-14T14:29:36.110Z,32.57
2018-07-14T14:32:05.498Z,32.72
2018-07-14T14:34:34.827Z,32.68
2018-07-14T14:37:04.541Z,32.22
2018-07-14T14:39:34.445Z,32.23
2018-07-14T14:42:03.761Z,32.22
2018-07-14T14:44:33.053Z,32.13
2018-07-14T14:47:02.491Z,32.02
2018-07-14T14:49:31.615Z,32.11
2018-07-14T14:52:00.914Z,31.80
2018-07-14T14:54:30.223Z,32.01
2018-07-14T14:56:59.471Z,32.08
2018-07-14T14:59:28.869Z,31.54
2018-07-14T15:01:58.379Z,31.57
2018-07-14T15:04:27.749Z,31.63
2018-07-14T15:06:57.134Z,31.46
2018-07-14T15:09:26.559Z,31.01
2018-07-14T15:11:56.063Z,30.71
2018-07-14T15:14:25.436Z,30.67
2018-07-14T15:16:54.742Z,30.67
2018-07-14T15:19:24.034Z,30.10
2018-07-14T15:21:53.405Z,30.40
2018-07-14T15:24:22.822Z,30.43
2018-07-14T15:26:52.173Z,30.27
2018-07-14T15:29:21.524Z,30.29
2018-07-14T15:31:50.868Z,30.48
2018-07-14T15:34:20.122Z,30.53
2018-07-14T15:36:49.392Z,30.27
2018-07-14T15:39:18.710Z,30.28
2018-07-14T15:41:47.992Z,30.07
2018-07-14T15:44:17.222Z,30.01
2018-07-14T15:46:46.510Z,29.83
2018-07-14T15:49:15.811Z,29.60
2018-07-14T15:51:45.162Z,29.56
2018-07-14T15:54:14.563Z,29.56
2018-07-14T15:56:43.867Z,29.23
2018-07-14T15:59:13.223Z,29.13
2018-07-14T16:01:42.433Z,29.09
2018-07-14T16:04:11.830Z,29.14
2018-07-14T16:06:41.038Z,29.12
2018-07-14T16:09:10.534Z,28.85
2018-07-14T16:11:41.027Z,28.93
2018-07-14T16:14:10.935Z,28.50
2018-07-14T16:16:40.632Z,28.65
2018-07-14T16:19:10.011Z,28.40
2018-07-14T16:21:39.385Z,28.40
2018-07-14T16:24:08.734Z,28.37
2018-07-14T16:26:38.331Z,28.40
2018-07-14T16:29:07.562Z,28.50
2018-07-14T16:31:36.876Z,28.14
2018-07-14T16:34:57.787Z,28.05
2018-07-14T16:37:26.908Z,28.06
2018-07-14T16:39:56.253Z,27.87
2018-07-14T16:42:25.654Z,27.83
2018-07-14T16:44:55.074Z,27.81
2018-07-14T16:47:24.382Z,27.80
2018-07-14T16:49:53.797Z,27.65
2018-07-14T16:52:23.091Z,27.51
2018-07-14T16:54:52.408Z,27.49
2018-07-14T16:57:21.737Z,27.41
2018-07-14T16:59:50.896Z,27.49
2018-07-14T17:02:20.230Z,27.40
2018-07-14T17:04:49.577Z,27.49
2018-07-14T17:07:18.803Z,27.38
2018-07-14T17:09:48.091Z,27.39
2018-07-14T17:12:17.199Z,27.31
2018-07-14T17:14:46.453Z,27.15
2018-07-14T17:17:15.695Z,27.16
2018-07-14T17:19:45.023Z,27.16
2018-07-14T17:22:14.568Z,27.13
2018-07-14T17:24:43.938Z,26.97
2018-07-14T17:27:13.593Z,26.86
2018-07-14T17:29:42.810Z,26.89
2018-07-14T17:32:12.129Z,26.86
2018-07-14T17:34:41.553Z,26.64
2018-07-14T17:37:11.041Z,26.63
2018-07-14T17:39:40.512Z,26.54
2018-07-14T17:42:09.991Z,26.39
2018-07-14T17:44:39.340Z,26.50
2018-07-14T17:47:08.700Z,26.46
2018-07-14T17:49:38.070Z,26.35
2018-07-14T17:52:08.986Z,26.35
2018-07-14T17:54:38.298Z,26.29
2018-07-14T17:57:07.819Z,26.27
2018-07-14T17:59:37.394Z,26.25
2018-07-14T18:02:07.010Z,26.10
2018-07-14T18:04:37.398Z,26.11
2018-07-14T18:07:06.660Z,26.03
2018-07-14T18:09:35.973Z,26.00
2018-07-14T18:12:05.389Z,25.95
2018-07-14T18:14:34.740Z,25.90
2018-07-14T18:17:04.094Z,25.87
2018-07-14T18:19:33.412Z,25.90
2018-07-14T18:22:02.713Z,25.80
2018-07-14T18:24:32.072Z,25.76
2018-07-14T18:27:01.436Z,25.74
2018-07-14T18:29:30.729Z,25.61
2018-07-14T18:32:00.085Z,25.57
2018-07-14T18:34:29.369Z,25.55
2018-07-14T18:36:58.635Z,25.55
2018-07-14T18:39:28.085Z,25.57
2018-07-14T18:41:57.787Z,25.48
2018-07-14T18:44:27.076Z,25.40
2018-07-14T18:46:56.424Z,25.46
2018-07-14T18:49:25.803Z,25.41
2018-07-14T18:51:55.146Z,25.31
2018-07-14T18:54:24.450Z,25.25
2018-07-14T18:56:53.966Z,25.23
2018-07-14T18:59:23.223Z,25.11
2018-07-14T19:01:52.630Z,25.03
2018-07-14T19:04:21.886Z,24.99
2018-07-14T19:06:51.175Z,24.92
2018-07-14T19:09:20.526Z,24.80
2018-07-14T19:11:49.790Z,24.70
2018-07-14T19:14:19.103Z,24.72
2018-07-14T19:16:48.411Z,24.61
2018-07-14T19:19:17.675Z,24.57
2018-07-14T19:21:46.753Z,24.45
2018-07-14T19:24:16.096Z,24.43
2018-07-14T19:26:45.422Z,24.41
2018-07-14T19:29:14.725Z,24.35
2018-07-14T19:31:44.044Z,24.29
2018-07-14T19:34:13.354Z,24.22
2018-07-14T19:36:42.782Z,24.17
2018-07-14T19:39:12.130Z,24.11
2018-07-14T19:41:41.527Z,24.00
2018-07-14T19:44:11.090Z,23.96
2018-07-14T19:46:40.644Z,23.97
2018-07-14T19:49:10.114Z,23.93
2018-07-14T19:51:39.514Z,23.83
2018-07-14T19:54:10.103Z,23.76
2018-07-14T19:56:39.328Z,23.70
2018-07-14T20:01:37.046Z,23.48
2018-07-14T20:04:06.465Z,23.35
2018-07-14T20:06:35.792Z,23.25
2018-07-14T20:09:06.232Z,23.24
2018-07-14T20:11:35.664Z,23.23
2018-07-14T20:14:05.251Z,23.16
2018-07-14T20:16:34.525Z,23.12
2018-07-14T20:19:03.932Z,23.05
2018-07-14T20:21:33.176Z,23.00
2018-07-14T20:24:02.490Z,22.96
2018-07-14T20:26:31.823Z,22.89
2018-07-14T20:29:01.177Z,22.80
2018-07-14T20:31:30.496Z,22.70
2018-07-14T20:34:00.167Z,22.66
2018-07-14T20:36:29.461Z,22.59
2018-07-14T20:38:58.813Z,22.47
2018-07-14T20:41:28.224Z,22.43
2018-07-14T20:43:57.436Z,22.32
2018-07-14T20:46:26.703Z,22.30
2018-07-14T20:48:56.098Z,22.19
2018-07-14T20:51:25.457Z,22.14
2018-07-14T20:53:55.006Z,22.04
2018-07-14T20:56:24.362Z,21.98
2018-07-14T20:58:53.848Z,22.00
2018-07-14T21:01:23.126Z,21.96
2018-07-14T21:03:52.668Z,21.90
2018-07-14T21:06:21.943Z,21.89
2018-07-14T21:08:51.310Z,21.88
2018-07-14T21:11:20.561Z,21.93
2018-07-14T21:13:49.922Z,21.89
2018-07-14T21:16:19.167Z,21.75
2018-07-14T21:18:48.451Z,21.73
2018-07-14T21:21:17.859Z,21.68
2018-07-14T21:23:46.987Z,21.73
2018-07-14T21:26:16.400Z,21.68
2018-07-14T21:28:45.666Z,21.60
2018-07-14T21:31:15.039Z,21.63
2018-07-14T21:33:44.317Z,21.52
2018-07-14T21:36:13.613Z,21.44
2018-07-14T21:38:43.684Z,21.36
2018-07-14T21:41:13.297Z,21.28
2018-07-14T21:43:42.334Z,21.32
2018-07-14T21:46:11.737Z,21.26
2018-07-14T21:48:41.081Z,21.24
2018-07-14T21:51:10.366Z,21.22
2018-07-14T21:53:39.467Z,21.25
2018-07-14T21:56:08.846Z,21.20
2018-07-14T21:58:38.317Z,21.23
2018-07-14T22:01:13.257Z,21.24
2018-07-14T22:03:42.652Z,21.25
2018-07-14T22:06:11.998Z,21.16
2018-07-14T22:08:41.302Z,21.15
2018-07-14T22:11:10.724Z,21.07
2018-07-14T22:13:40.382Z,21.08
2018-07-14T22:16:09.759Z,21.06
2018-07-14T22:18:39.183Z,21.04
2018-07-14T22:21:08.613Z,21.01
2018-07-14T22:23:37.998Z,20.98
2018-07-14T22:26:07.325Z,20.89
2018-07-14T22:28:36.597Z,20.84
2018-07-14T22:31:06.054Z,20.78
2018-07-14T22:33:35.367Z,20.73
2018-07-14T22:36:04.648Z,20.64
2018-07-14T22:38:34.089Z,20.70
2018-07-14T22:41:03.366Z,20.64
2018-07-14T22:43:32.628Z,20.62
2018-07-14T22:46:01.931Z,20.55
2018-07-14T22:48:31.252Z,20.53
2018-07-14T22:51:00.572Z,20.56
2018-07-14T22:53:29.881Z,20.57
2018-07-14T22:55:59.186Z,20.49
2018-07-14T22:58:28.493Z,20.49
2018-07-14T23:00:57.787Z,20.37
2018-07-14T23:03:27.349Z,20.29
2018-07-14T23:05:56.595Z,20.25
2018-07-14T23:08:25.859Z,20.20
2018-07-14T23:10:55.111Z,20.22
2018-07-14T23:13:24.378Z,20.16
2018-07-14T23:15:53.705Z,20.16
2018-07-14T23:18:23.031Z,20.16
2018-07-14T23:20:52.282Z,20.16
2018-07-14T23:23:21.569Z,20.11
2018-07-14T23:25:51.661Z,19.99
2018-07-14T23:28:21.007Z,19.99
2018-07-14T23:30:50.370Z,19.96
2018-07-14T23:33:19.591Z,19.92
2018-07-14T23:35:48.844Z,19.93
2018-07-14T23:38:18.090Z,19.92
2018-07-14T23:40:47.346Z,19.88
2018-07-14T23:43:16.587Z,19.87
2018-07-14T23:45:45.869Z,19.81
2018-07-14T23:48:15.193Z,19.77
2018-07-14T23:50:44.422Z,19.74
2018-07-14T23:53:13.751Z,19.69
2018-07-14T23:55:43.026Z,19.71
2018-07-14T23:58:12.349Z,19.72
